KLGC/LGC METAR and TAF weather

Enter ICAO airport designator
Station Type Date Time Source
KLGC METAR 2022/06/30 01:35 UTC NOAA

KLGC 300135Z AUTO 15005KT 10SM SCT018 SCT060 SCT070 23/21 A3022 RMK AO2 LTG DSNT N AND NE T02310205


Station Type Date Time Source
KLGC Decoded METAR 2022/06/30 01:35 UTC NOAA

La Grange, Callaway Airport, GA, United States (KLGC) 33-00-32N 085-04-21W
Jun 29, 2022 - 09:35 PM EDT / 2022.06.30 0135 UTC
Wind: from the SSE (150 degrees) at 6 MPH (5 KT):0
Visibility: 10 mile(s):0
Sky conditions: partly cloudy
Weather: Lightning observed
Temperature: 73.6 F (23.1 C)
Dew Point: 68.9 F (20.5 C)
Relative Humidity: 85%
Pressure (altimeter): 30.22 in. Hg (1023 hPa)
ob: KLGC 300135Z AUTO 15005KT 10SM SCT018 SCT060 SCT070 23/21 A3022 RMK AO2 LTG DSNT N AND NE T02310205
cycle: 1

Station Type Date Time Source
KLGC TAF UTC NOAA

Error!

Example: see airport list